createdAt,value
2022-11-16T00:00:20.091Z,99971.59
2022-11-16T00:03:17.382Z,99962.38
2022-11-16T00:06:14.798Z,99957.47
2022-11-16T00:09:27.004Z,99952.22
2022-11-16T00:12:24.184Z,99952.59
2022-11-16T00:15:21.408Z,99961.50
2022-11-16T00:18:18.414Z,99953.41
2022-11-16T00:21:15.348Z,99948.19
2022-11-16T00:24:13.831Z,99944.53
2022-11-16T00:27:11.397Z,99948.50
2022-11-16T00:30:10.729Z,99946.75
2022-11-16T00:33:08.631Z,99939.66
2022-11-16T00:36:08.002Z,99930.81
2022-11-16T00:39:05.435Z,99935.97
2022-11-16T00:42:02.508Z,99926.59
2022-11-16T00:45:00.337Z,99928.16
2022-11-16T00:48:00.438Z,99923.78
2022-11-16T00:50:58.439Z,99920.63
2022-11-16T00:53:55.357Z,99915.28
2022-11-16T00:56:53.311Z,99909.22
2022-11-16T00:59:50.537Z,99904.06
2022-11-16T01:02:47.274Z,99900.28
2022-11-16T01:05:44.554Z,99897.84
2022-11-16T01:08:41.727Z,99885.66
2022-11-16T01:11:57.730Z,99892.84
2022-11-16T01:14:55.668Z,99889.97
2022-11-16T01:17:54.169Z,99886.41
2022-11-16T01:20:53.676Z,99884.00
2022-11-16T01:23:50.519Z,99881.91
2022-11-16T01:26:49.950Z,99878.94
2022-11-16T01:29:49.010Z,99878.22
2022-11-16T01:32:46.399Z,99876.22
2022-11-16T01:35:46.329Z,99865.34
2022-11-16T01:38:46.021Z,99866.91
2022-11-16T01:41:45.680Z,99861.22
2022-11-16T01:44:44.169Z,99866.28
2022-11-16T01:47:45.546Z,99856.03
2022-11-16T01:50:46.759Z,99860.56
2022-11-16T01:53:44.260Z,99859.91
2022-11-16T01:56:44.964Z,99848.91
2022-11-16T01:59:54.184Z,99850.19
2022-11-16T02:02:53.613Z,99842.50
2022-11-16T02:06:32.106Z,99827.47
2022-11-16T02:10:08.827Z,99822.84
2022-11-16T02:13:18.365Z,99827.22
2022-11-16T02:16:52.758Z,99821.22
2022-11-16T02:20:20.346Z,99805.47
2022-11-16T02:23:45.205Z,99811.91
2022-11-16T02:26:54.061Z,99809.13
2022-11-16T02:29:52.599Z,99809.06
2022-11-16T02:33:09.233Z,99807.16
2022-11-16T02:36:07.077Z,99804.84
2022-11-16T02:39:07.907Z,99790.44
2022-11-16T02:42:06.160Z,99784.03
2022-11-16T02:45:04.814Z,99790.09
2022-11-16T02:48:15.169Z,99777.56
2022-11-16T02:51:12.312Z,99782.22
2022-11-16T02:54:13.046Z,99775.34
2022-11-16T02:57:23.653Z,99782.00
2022-11-16T03:00:26.066Z,99781.63
2022-11-16T03:03:43.359Z,99771.91
2022-11-16T03:06:41.523Z,99766.69
2022-11-16T03:09:39.205Z,99764.34
2022-11-16T03:12:38.489Z,99756.19
2022-11-16T03:15:36.811Z,99764.72
2022-11-16T03:18:35.033Z,99753.00
2022-11-16T03:21:45.721Z,99750.34
2022-11-16T03:24:43.610Z,99751.22
2022-11-16T03:27:53.986Z,99739.06
2022-11-16T03:30:55.053Z,99746.78
2022-11-16T03:33:56.188Z,99742.13
2022-11-16T03:36:54.556Z,99742.44
2022-11-16T03:39:51.386Z,99744.84
2022-11-16T03:42:49.748Z,99739.25
2022-11-16T03:45:47.725Z,99740.97
2022-11-16T03:48:45.646Z,99729.75
2022-11-16T03:51:51.442Z,99733.88
2022-11-16T03:54:49.612Z,99727.59
2022-11-16T03:57:47.951Z,99723.84
2022-11-16T04:00:46.045Z,99717.50
2022-11-16T04:03:43.362Z,99722.31
2022-11-16T04:07:00.123Z,99719.16
2022-11-16T04:10:16.399Z,99713.09
2022-11-16T04:13:33.494Z,99711.03
2022-11-16T04:16:49.196Z,99713.34
2022-11-16T04:20:05.440Z,99718.22
2022-11-16T04:23:31.473Z,99709.38
2022-11-16T04:26:47.301Z,99704.47
2022-11-16T04:29:44.569Z,99706.41
2022-11-16T04:33:01.018Z,99706.88
2022-11-16T04:36:20.553Z,99698.16
2022-11-16T04:39:18.564Z,99697.72
2022-11-16T04:42:19.208Z,99703.38
2022-11-16T04:45:38.633Z,99702.09
2022-11-16T04:48:35.517Z,99701.94
2022-11-16T04:51:33.495Z,99697.75
2022-11-16T04:54:31.673Z,99701.50
2022-11-16T04:57:29.663Z,99707.50
2022-11-16T05:00:26.282Z,99699.16
2022-11-16T05:03:23.600Z,99705.06
2022-11-16T05:06:21.662Z,99701.09
2022-11-16T05:09:19.860Z,99690.91
2022-11-16T05:12:21.662Z,99702.63
2022-11-16T05:15:21.620Z,99695.72
2022-11-16T05:18:18.262Z,99689.59
2022-11-16T05:21:16.002Z,99702.88
2022-11-16T05:24:32.020Z,99697.91
2022-11-16T05:27:29.908Z,99695.19
2022-11-16T05:30:29.710Z,99693.13
2022-11-16T05:33:29.491Z,99687.91
2022-11-16T05:36:26.624Z,99692.38
2022-11-16T05:39:23.720Z,99691.50
2022-11-16T05:42:21.577Z,99684.97
2022-11-16T05:45:21.203Z,99688.66
2022-11-16T05:48:20.036Z,99692.28
2022-11-16T05:51:18.700Z,99690.38
2022-11-16T05:54:18.997Z,99691.94
2022-11-16T05:57:17.560Z,99693.88
2022-11-16T06:00:15.299Z,99691.78
2022-11-16T06:03:13.021Z,99696.59
2022-11-16T06:06:11.450Z,99693.19
2022-11-16T06:09:09.388Z,99698.78
2022-11-16T06:12:09.325Z,99704.59
2022-11-16T06:15:06.893Z,99705.75
2022-11-16T06:18:04.669Z,99708.53
2022-11-16T06:21:01.556Z,99714.13
2022-11-16T06:23:58.684Z,99714.84
2022-11-16T06:26:57.077Z,99718.00
2022-11-16T06:29:54.680Z,99718.91
2022-11-16T06:32:52.907Z,99727.00
2022-11-16T06:35:50.498Z,99733.88
2022-11-16T06:38:51.688Z,99744.03
2022-11-16T06:41:50.445Z,99741.16
2022-11-16T06:44:47.589Z,99742.34
2022-11-16T06:47:48.365Z,99741.91
2022-11-16T06:50:49.921Z,99747.47
2022-11-16T06:53:48.353Z,99750.66
2022-11-16T06:56:46.293Z,99756.31
2022-11-16T06:59:43.775Z,99751.97
2022-11-16T07:02:40.713Z,99763.72
2022-11-16T07:05:42.776Z,99760.13
2022-11-16T07:08:43.575Z,99758.13
2022-11-16T07:11:42.550Z,99760.56
2022-11-16T07:14:39.632Z,99758.25
2022-11-16T07:17:39.665Z,99764.13
2022-11-16T07:20:37.456Z,99765.28
2022-11-16T07:23:34.620Z,99780.66
2022-11-16T07:26:34.881Z,99770.31
2022-11-16T07:29:38.384Z,99775.84
2022-11-16T07:32:57.322Z,99781.50
2022-11-16T07:36:15.950Z,99781.97
2022-11-16T07:39:13.930Z,99784.31
2022-11-16T07:42:12.357Z,99789.84
2022-11-16T07:45:24.316Z,99795.81
2022-11-16T07:48:26.513Z,99802.03
2022-11-16T07:51:42.927Z,99804.75
2022-11-16T07:54:49.273Z,99802.69
2022-11-16T07:57:52.979Z,99811.66
2022-11-16T08:00:50.677Z,99813.75
2022-11-16T08:03:48.191Z,99813.38
2022-11-16T08:06:46.954Z,99815.59
2022-11-16T08:09:44.959Z,99817.03
2022-11-16T08:39:36.281Z,99820.16
2022-11-16T08:42:33.456Z,99808.94
2022-11-16T08:45:30.627Z,99823.00
2022-11-16T08:48:27.777Z,99825.50
2022-11-16T08:51:24.989Z,99820.66
2022-11-16T08:54:29.944Z,99820.47
2022-11-16T08:57:27.545Z,99828.16
2022-11-16T09:00:28.625Z,99820.13
2022-11-16T09:03:25.554Z,99829.81
2022-11-16T09:06:23.256Z,99828.31
2022-11-16T09:09:20.596Z,99834.78
2022-11-16T09:12:17.894Z,99832.47
2022-11-16T09:15:15.265Z,99837.47
2022-11-16T09:18:12.783Z,99832.75
2022-11-16T09:21:09.779Z,99840.97
2022-11-16T09:24:06.532Z,99837.47
2022-11-16T09:27:03.825Z,99839.13
2022-11-16T09:30:01.935Z,99846.75
2022-11-16T09:32:59.399Z,99837.25
2022-11-16T09:36:01.657Z,99837.94
2022-11-16T09:42:36.927Z,99840.84
2022-11-16T09:45:50.264Z,99848.50
2022-11-16T09:48:48.612Z,99846.72
2022-11-16T09:51:47.432Z,99857.56
2022-11-16T09:54:44.536Z,99850.63
2022-11-16T09:57:41.757Z,99845.34
2022-11-16T10:00:38.561Z,99848.19
2022-11-16T10:03:38.510Z,99852.28
2022-11-16T10:06:57.685Z,99856.13
2022-11-16T10:09:55.851Z,99858.94
2022-11-16T10:12:56.219Z,99865.81
2022-11-16T10:16:00.417Z,99866.28
2022-11-16T10:19:22.469Z,99861.13
2022-11-16T10:22:42.807Z,99867.13
2022-11-16T10:25:47.167Z,99862.03
2022-11-16T10:29:33.677Z,99860.00
2022-11-16T10:32:32.151Z,99861.28
2022-11-16T10:35:41.825Z,99870.25
2022-11-16T10:38:38.592Z,99865.38
2022-11-16T10:41:51.023Z,99864.16
2022-11-16T10:44:53.847Z,99868.47
2022-11-16T10:47:57.945Z,99872.22
2022-11-16T10:50:56.024Z,99859.31
2022-11-16T10:53:54.303Z,99862.56
2022-11-16T10:57:05.406Z,99856.50
2022-11-16T11:00:03.477Z,99859.69
2022-11-16T11:03:00.752Z,99857.81
2022-11-16T11:05:57.712Z,99857.47
2022-11-16T11:08:54.604Z,99859.50
2022-11-16T11:12:38.470Z,99861.53
2022-11-16T11:15:35.757Z,99853.06
2022-11-16T11:18:32.532Z,99854.41
2022-11-16T11:21:29.529Z,99854.00
2022-11-16T11:24:44.094Z,99846.44
2022-11-16T11:27:42.222Z,99843.47
2022-11-16T11:30:39.864Z,99848.44
2022-11-16T11:33:44.078Z,99845.88
2022-11-16T11:37:03.458Z,99840.94
2022-11-16T11:40:09.720Z,99845.63
2022-11-16T11:43:06.777Z,99845.03
2022-11-16T11:46:05.577Z,99845.56
2022-11-16T11:49:34.056Z,99842.84
2022-11-16T11:52:39.670Z,99838.91
2022-11-16T11:55:36.759Z,99846.22
2022-11-16T11:58:35.787Z,99839.06
2022-11-16T12:02:06.629Z,99854.91
2022-11-16T12:05:35.012Z,99847.69
2022-11-16T12:08:58.066Z,99845.41
2022-11-16T12:12:18.191Z,99836.00
2022-11-16T12:15:27.886Z,99832.53
2022-11-16T12:18:56.658Z,99837.09
2022-11-16T12:22:12.517Z,99841.31
2022-11-16T12:25:21.503Z,99829.00
2022-11-16T12:28:37.109Z,99835.81
2022-11-16T12:32:00.394Z,99834.38
2022-11-16T12:35:35.570Z,99836.38
2022-11-16T12:38:57.576Z,99840.25
2022-11-16T12:42:00.758Z,99830.56
2022-11-16T12:45:32.905Z,99828.59
2022-11-16T12:48:29.825Z,99831.78
2022-11-16T12:51:37.542Z,99827.34
2022-11-16T12:55:04.275Z,99835.91
2022-11-16T12:58:06.995Z,99837.56
2022-11-16T13:01:22.905Z,99833.19
2022-11-16T13:04:26.075Z,99838.06
2022-11-16T13:07:37.484Z,99836.47
2022-11-16T13:10:36.024Z,99827.53
2022-11-16T13:13:37.089Z,99823.47
2022-11-16T13:16:34.761Z,99820.56
2022-11-16T13:19:31.888Z,99818.38
2022-11-16T13:22:29.073Z,99819.97
2022-11-16T13:25:55.069Z,99813.44
2022-11-16T13:29:14.877Z,99821.06
2022-11-16T13:32:17.622Z,99822.75
2022-11-16T13:35:16.073Z,99818.72
2022-11-16T13:38:16.075Z,99820.34
2022-11-16T13:41:29.727Z,99824.06
2022-11-16T13:44:28.242Z,99818.38
2022-11-16T13:47:27.997Z,99806.66
2022-11-16T13:50:37.247Z,99807.44
2022-11-16T13:57:20.222Z,99805.00
2022-11-16T14:00:27.318Z,99803.47
2022-11-16T14:03:26.703Z,99794.53
2022-11-16T14:06:23.899Z,99801.44
2022-11-16T14:09:46.359Z,99792.88
2022-11-16T14:12:54.373Z,99792.88
2022-11-16T14:16:21.487Z,99793.72
2022-11-16T14:19:55.184Z,99800.22
2022-11-16T14:22:52.648Z,99802.69
2022-11-16T14:26:11.691Z,99796.16
2022-11-16T14:29:38.969Z,99800.53
2022-11-16T14:32:43.296Z,99791.63
2022-11-16T14:35:40.985Z,99781.88
2022-11-16T14:38:41.945Z,99785.16
2022-11-16T14:41:39.077Z,99791.63
2022-11-16T14:44:38.549Z,99794.50
2022-11-16T14:47:36.311Z,99799.41
2022-11-16T14:50:39.633Z,99801.84
2022-11-16T14:53:39.715Z,99789.25
2022-11-16T14:56:36.653Z,99795.28
2022-11-16T14:59:33.899Z,99785.97
2022-11-16T15:02:30.870Z,99789.28
2022-11-16T15:05:29.609Z,99793.84
2022-11-16T15:08:39.134Z,99793.84
2022-11-16T15:11:59.030Z,99790.94
2022-11-16T15:14:57.293Z,99800.22
2022-11-16T15:18:00.923Z,99797.31
2022-11-16T15:20:58.209Z,99792.81
2022-11-16T15:27:34.727Z,99801.78
2022-11-16T15:30:37.097Z,99793.81
2022-11-16T15:33:38.469Z,99799.31
2022-11-16T15:36:39.448Z,99793.56
2022-11-16T15:39:36.851Z,99784.16
2022-11-16T15:42:33.934Z,99785.34
2022-11-16T15:45:31.023Z,99798.59
2022-11-16T15:48:28.091Z,99799.75
2022-11-16T15:51:24.951Z,99790.75
2022-11-16T15:54:24.882Z,99793.25
2022-11-16T15:57:23.221Z,99787.09
2022-11-16T16:00:23.618Z,99787.53
2022-11-16T16:03:26.080Z,99796.25
2022-11-16T16:07:01.636Z,99794.59
2022-11-16T16:10:23.925Z,99789.56
2022-11-16T16:13:39.025Z,99794.00
2022-11-16T16:16:39.172Z,99799.50
2022-11-16T16:19:39.069Z,99800.34
2022-11-16T16:22:37.080Z,99801.31
2022-11-16T16:25:34.721Z,99811.78
2022-11-16T16:28:31.721Z,99817.72
2022-11-16T16:31:29.025Z,99810.13
2022-11-16T16:34:26.106Z,99802.88
2022-11-16T16:37:22.966Z,99814.22
2022-11-16T16:40:20.011Z,99808.69
2022-11-16T16:43:17.256Z,99811.25
2022-11-16T16:46:14.161Z,99812.97
2022-11-16T16:49:10.935Z,99808.38
2022-11-16T16:52:08.116Z,99799.09
2022-11-16T16:55:05.784Z,99795.97
2022-11-16T16:58:02.957Z,99796.84
2022-11-16T17:01:04.369Z,99788.63
2022-11-16T17:04:02.118Z,99793.72
2022-11-16T17:06:59.442Z,99793.59
2022-11-16T17:09:56.906Z,99780.63
2022-11-16T17:12:54.706Z,99774.06
2022-11-16T17:15:51.908Z,99776.75
2022-11-16T17:18:54.001Z,99773.53
2022-11-16T17:21:51.790Z,99787.75
2022-11-16T17:24:48.866Z,99800.00
2022-11-16T17:27:46.074Z,99793.25
2022-11-16T17:30:42.950Z,99789.31
2022-11-16T17:33:42.823Z,99783.25
2022-11-16T17:36:40.313Z,99779.25
2022-11-16T17:39:38.332Z,99779.19
2022-11-16T17:42:36.212Z,99785.19
2022-11-16T17:45:33.143Z,99787.84
2022-11-16T17:48:30.150Z,99777.78
2022-11-16T17:51:27.879Z,99768.13
2022-11-16T17:54:25.151Z,99770.66
2022-11-16T17:57:22.111Z,99774.34
2022-11-16T18:00:19.215Z,99764.72
2022-11-16T18:03:16.488Z,99765.59
2022-11-16T18:06:16.017Z,99759.31
2022-11-16T18:09:13.211Z,99770.97
2022-11-16T18:12:10.127Z,99764.38
2022-11-16T18:15:27.323Z,99770.66
2022-11-16T18:18:24.852Z,99759.41
2022-11-16T18:21:21.757Z,99746.16
2022-11-16T18:24:19.465Z,99740.22
2022-11-16T18:27:17.395Z,99738.81
2022-11-16T18:30:15.377Z,99733.19
2022-11-16T18:33:13.179Z,99750.31
2022-11-16T18:36:10.188Z,99755.28
2022-11-16T18:39:07.031Z,99744.75
2022-11-16T18:42:04.045Z,99744.06
2022-11-16T18:45:01.418Z,99748.81
2022-11-16T18:47:59.110Z,99730.53
2022-11-16T18:50:59.976Z,99740.28
2022-11-16T18:53:56.941Z,99746.06
2022-11-16T18:56:55.288Z,99746.72
2022-11-16T18:59:51.925Z,99746.66
2022-11-16T19:02:48.870Z,99752.06
2022-11-16T19:05:45.968Z,99759.97
2022-11-16T19:08:43.513Z,99747.09
2022-11-16T19:11:41.018Z,99740.28
2022-11-16T19:14:39.446Z,99728.28
2022-11-16T19:17:48.181Z,99737.34
2022-11-16T19:21:06.136Z,99735.50
2022-11-16T19:24:03.267Z,99741.03
2022-11-16T19:26:59.858Z,99743.41
2022-11-16T19:29:56.905Z,99735.06
2022-11-16T19:32:57.427Z,99727.50
2022-11-16T19:35:55.020Z,99730.13
2022-11-16T19:38:52.157Z,99732.25
2022-11-16T19:41:48.843Z,99744.91
2022-11-16T19:44:46.063Z,99735.44
2022-11-16T19:47:44.701Z,99743.31
2022-11-16T19:50:42.178Z,99735.31
2022-11-16T19:53:39.325Z,99737.91
2022-11-16T19:56:35.958Z,99743.34
2022-11-16T19:59:33.161Z,99744.69
2022-11-16T20:02:30.236Z,99733.34
2022-11-16T20:05:30.083Z,99740.72
2022-11-16T20:08:27.145Z,99731.38
2022-11-16T20:11:25.339Z,99728.13
2022-11-16T20:14:22.021Z,99724.03
2022-11-16T20:17:19.295Z,99723.88
2022-11-16T20:20:16.208Z,99711.91
2022-11-16T20:23:15.618Z,99702.94
2022-11-16T20:26:13.908Z,99705.47
2022-11-16T20:29:12.142Z,99706.28
2022-11-16T20:32:09.187Z,99691.78
2022-11-16T20:35:05.929Z,99689.56
2022-11-16T20:38:03.180Z,99690.28
2022-11-16T20:41:10.415Z,99686.16
2022-11-16T20:44:10.617Z,99678.31
2022-11-16T20:47:09.971Z,99678.00
2022-11-16T20:50:07.357Z,99672.06
2022-11-16T20:53:04.306Z,99668.38
2022-11-16T20:56:02.750Z,99667.00
2022-11-16T20:59:00.416Z,99672.84
2022-11-16T21:01:56.949Z,99670.53
2022-11-16T21:04:59.960Z,99670.44
2022-11-16T21:07:59.503Z,99661.50
2022-11-16T21:10:57.289Z,99660.53
2022-11-16T21:14:13.240Z,99661.75
2022-11-16T21:17:09.869Z,99646.91
2022-11-16T21:23:25.028Z,99645.78
2022-11-16T21:26:23.880Z,99640.09
2022-11-16T21:29:25.930Z,99641.16
2022-11-16T21:32:22.990Z,99634.41
2022-11-16T21:35:21.044Z,99637.19
2022-11-16T21:38:17.979Z,99652.28
2022-11-16T21:41:15.912Z,99645.00
2022-11-16T21:44:13.593Z,99644.56
2022-11-16T21:47:11.347Z,99633.00
2022-11-16T21:50:30.531Z,99619.09
2022-11-16T21:53:25.361Z,99601.09
2022-11-16T21:56:23.714Z,99593.66
2022-11-16T21:59:21.367Z,99610.19
2022-11-16T22:02:18.771Z,99606.88
2022-11-16T22:05:34.715Z,99595.94
2022-11-16T22:08:32.168Z,99583.16
2022-11-16T22:11:29.434Z,99584.75
2022-11-16T22:14:25.982Z,99572.59
2022-11-16T22:17:23.455Z,99563.91
2022-11-16T22:20:20.972Z,99553.97
2022-11-16T22:23:22.671Z,99555.25
2022-11-16T22:26:20.019Z,99549.25
2022-11-16T22:29:17.042Z,99553.97
2022-11-16T22:32:14.036Z,99550.03
2022-11-16T22:35:11.544Z,99556.13
2022-11-16T22:38:09.189Z,99543.03
2022-11-16T22:41:06.481Z,99557.31
2022-11-16T22:44:03.259Z,99554.72
2022-11-16T22:47:00.093Z,99542.50
2022-11-16T22:49:57.059Z,99539.47
2022-11-16T22:52:54.215Z,99537.41
2022-11-16T22:55:51.099Z,99538.50
2022-11-16T22:58:48.045Z,99520.69
2022-11-16T23:01:45.013Z,99515.34
2022-11-16T23:04:42.390Z,99523.78
2022-11-16T23:07:41.397Z,99516.38
2022-11-16T23:10:58.330Z,99517.81
2022-11-16T23:14:14.206Z,99502.78
2022-11-16T23:17:11.266Z,99493.03
2022-11-16T23:20:27.788Z,99481.78
2022-11-16T23:23:44.015Z,99468.75
2022-11-16T23:27:00.148Z,99459.38
2022-11-16T23:30:01.265Z,99451.69
2022-11-16T23:32:58.207Z,99457.88
2022-11-16T23:35:55.161Z,99449.00
2022-11-16T23:38:52.241Z,99433.47
2022-11-16T23:42:08.006Z,99427.41
2022-11-16T23:45:05.428Z,99425.34
2022-11-16T23:48:02.388Z,99421.56
2022-11-16T23:50:59.155Z,99407.31
2022-11-16T23:53:56.123Z,99415.09
2022-11-16T23:56:53.422Z,99410.78
2022-11-16T23:59:50.367Z,99404.78
